Ana Sayfa
METAR-TAF:

METAR-TAF

Havaalanları :

Greenville, Maine, Amerika Birleşik Devletleri

Enlem: 45-28N, Boylam: 069-35W, yükseklik: 427 m

Güncel hava durumu gözlemi

Rapor saat 07:56 UTC de 41 dakika önce yapıldı.
Rüzgar değişken yönden 4 kt
Sıcaklık -4°C
Nem 74%
Basınç 1015 hPa

METAR: KGNR 230756Z AUTO VRB04KT M04/M08 A2996 RMK AO1 SLP166 T10391078

Saat: 03:37 (08:37 UTC)


TAF: eksik

4.000'den fazla havaalanı için hava durumu gözlemleri ve tahminleri (METAR ve TAF raporları).

Kullanılabilir istasyonlar harita üzerinde sarı ve kırmızı noktalarla gösterilir.

İstasyonun adını görmek için fareyi noktanın üzerinde gezdirin.

Sonrasında hava gözlem ve tahminlerini görmek için tıklayın.

Haritayı değiştirmek için: yaklaştırmak için siyah artı işaretli yeşil düğmeye ve uzaklaştırmak için de eksi işaretli düğmeye hızla tıklayın; bitişik haritalar için yeşil okları kullanın.


METAR-TAF: